Flight Track Log - Related Links

Times and Time Zones

All times are in EST time to prevent confusion due to time zone crossing. See the AAL963 flight status page for this flight to view local times or setup timezone preferences in your user account.

Time Position Orientation Groundspeed Altitude Reporting Facility
EST Latitude Longitude Course Direction KTS MPH feet Rate Location/Type
Wed 10:06:19 PM 32.8600 -97.0296 178° South 162 186 2,600  Level FlightAware ADS-B
Wed 10:06:39 PM 32.8494 -97.0295 180° South 173 199 3,200 1,475 Climbing FlightAware ADS-B
Wed 10:07:20 PM 32.8042 -97.0293 180° South 234 269 4,100 1,574 Climbing FlightAware ADS-B
Wed 10:07:40 PM 32.7925 -97.0283 176° South 248 285 4,800 1,946 Climbing FlightAware ADS-B
Wed 10:07:57 PM 32.7623 -97.0193 166° South 267 307 5,300 2,919 Climbing FlightAware ADS-B
Wed 10:08:17 PM 32.7381 -97.0089 160° South 266 306 6,600 3,148 Climbing FlightAware ADS-B
Wed 10:08:58 PM 32.6912 -96.9895 161° South 271 312 8,500 2,613 Climbing FlightAware ADS-B
Wed 10:09:19 PM 32.6654 -96.9787 161° South 279 321 9,300 2,108 Climbing FlightAware ADS-B
Wed 10:09:35 PM 32.6505 -96.9726 161° South 289 333 9,800 1,866 Climbing FlightAware ADS-B
Wed 10:13:33 PM 32.2490 -96.8007 160° South 421 484 17,200 1,882 Climbing FlightAware ADS-B
Wed 10:14:22 PM 32.1562 -96.7662 163° South 433 498 18,800 2,090 Climbing FlightAware ADS-B
Wed 10:15:02 PM 32.0787 -96.7373 162° South 439 505 20,300 2,113 Climbing FlightAware ADS-B
Wed 10:15:33 PM 32.0188 -96.7146 162° South 445 512 21,300 1,966 Climbing FlightAware ADS-B
Wed 10:16:00 PM 31.9650 -96.6940 162° South 451 519 22,200 2,000 Climbing FlightAware ADS-B
Wed 10:16:03 PM 31.9595 -96.6920 163° South 451 519 22,300 2,087 Climbing FlightAware ADS-B
Wed 10:16:46 PM 31.8724 -96.6589 162° South 452 520 23,800 2,000 Climbing FlightAware ADS-B
Wed 10:16:54 PM 31.8580 -96.6530 161° South 454 522 24,000 1,500 Climbing FlightAware ADS-B
Wed 10:17:18 PM 31.8105 -96.6336 161° South 460 529 24,600 1,548 Climbing FlightAware ADS-B
Wed 10:17:25 PM 31.7960 -96.6280 162° South 463 533 24,800 1,400 Climbing FlightAware ADS-B
Wed 10:17:48 PM 31.7488 -96.6080 160° South 468 539 25,300 1,371 Climbing FlightAware ADS-B
Wed 10:18:00 PM 31.7240 -96.5980 161° South 472 543 25,600 1,600 Climbing FlightAware ADS-B
Wed 10:18:18 PM 31.6859 -96.5820 160° South 475 547 26,100 1,459 Climbing FlightAware ADS-B
Wed 10:18:37 PM 31.6500 -96.5670 160° South 480 552 26,500 1,313 Climbing FlightAware ADS-B
Wed 10:18:50 PM 31.6196 -96.5549 161° South 481 554 26,800 1,241 Climbing FlightAware ADS-B
Wed 10:19:06 PM 31.5860 -96.5410 161° South 487 560 27,100 1,355 Climbing FlightAware ADS-B
Wed 10:19:21 PM 31.5546 -96.5284 161° South 488 562 27,500 1,548 Climbing FlightAware ADS-B
Wed 10:19:37 PM 31.5220 -96.5150 161° South 490 564 27,900 1,400 Climbing FlightAware ADS-B
Wed 10:19:51 PM 31.4895 -96.5023 162° South 492 566 28,200 1,400 Climbing FlightAware ADS-B
Wed 10:20:07 PM 31.4560 -96.4900 163° South 496 571 28,600 1,313 Climbing FlightAware ADS-B
Wed 10:20:23 PM 31.4202 -96.4766 162° South 497 572 28,900 667 Climbing FlightAware ADS-B
Wed 10:20:43 PM 31.3760 -96.4600 162° South 497 572 29,000 200 Climbing FlightAware ADS-B
Wed 10:20:53 PM 31.3528 -96.4518 163° South 496 571 29,000  Level FlightAware ADS-B
Wed 10:21:12 PM 31.3120 -96.4370 163° South 497 572 29,000  Level FlightAware ADS-B
Wed 10:21:23 PM 31.2871 -96.4275 162° South 496 571 29,000  Level FlightAware ADS-B
Wed 10:21:43 PM 31.2450 -96.4120 163° South 497 572 29,000  Level FlightAware ADS-B
Wed 10:21:52 PM 31.2234 -96.4036 162° South 498 573 29,000  Level FlightAware ADS-B
Wed 10:22:00 PM 31.2060 -96.3960 160° South 504 580 29,000  Level FlightAware ADS-B
Wed 10:22:02 PM 31.2030 -96.3938 148° Southeast 503 579 29,000  Level FlightAware ADS-B
Wed 10:22:19 PM 31.1700 -96.3710 149° Southeast 516 594 29,000  Level FlightAware ADS-B
Wed 10:22:21 PM 31.1648 -96.3662 142° Southeast 516 594 29,000  Level FlightAware ADS-B
Wed 10:22:32 PM 31.1449 -96.3455 138° Southeast 523 602 29,000  Level FlightAware ADS-B
Wed 10:22:37 PM 31.1380 -96.3370 133° Southeast 525 604 29,000  Level FlightAware ADS-B
Wed 10:22:44 PM 31.1262 -96.3196 128° Southeast 527 606 29,000  Level FlightAware ADS-B
Wed 10:23:06 PM 31.0940 -96.2680 126° Southeast 526 605 29,000  Level FlightAware ADS-B
Wed 10:23:14 PM 31.0833 -96.2504 125° Southeast 525 604 29,000  Level FlightAware ADS-B
Wed 10:23:43 PM 31.0430 -96.1850 126° Southeast 524 603 29,000  Level FlightAware ADS-B
Wed 10:23:44 PM 31.0412 -96.1815 121° Southeast 523 602 29,000  Level FlightAware ADS-B
Wed 10:24:14 PM 30.9991 -96.1124 125° Southeast 524 603 29,000  Level FlightAware ADS-B
Wed 10:24:19 PM 30.9940 -96.1040 125° Southeast 524 603 29,000  Level FlightAware ADS-B
Wed 10:24:45 PM 30.9563 -96.0425 126° Southeast 522 601 29,000  Level FlightAware ADS-B
Wed 10:24:48 PM 30.9510 -96.0340 126° Southeast 523 602 29,000  Level FlightAware ADS-B
Wed 10:25:17 PM 30.9110 -95.9690 126° Southeast 523 602 29,000  Level FlightAware ADS-B
Wed 10:25:19 PM 30.9090 -95.9650 120° Southeast 523 602 29,000  Level FlightAware ADS-B
Wed 10:25:48 PM 30.8675 -95.8988 126° Southeast 522 601 29,000  Level FlightAware ADS-B
Wed 10:25:54 PM 30.8580 -95.8840 127° Southeast 524 603 29,000  Level FlightAware ADS-B
Wed 10:26:18 PM 30.8248 -95.8302 126° Southeast 523 602 29,000  Level FlightAware ADS-B
Wed 10:26:24 PM 30.8160 -95.8160 126° Southeast 524 603 29,000 188 Level FlightAware ADS-B
Wed 10:26:50 PM 30.7798 -95.7579 126° Southeast 523 602 29,100 500 Climbing FlightAware ADS-B
Wed 10:27:00 PM 30.7650 -95.7340 126° Southeast 525 604 29,300 1,548 Climbing FlightAware ADS-B
Wed 10:27:21 PM 30.7358 -95.6872 126° Southeast 523 602 29,900 1,833 Climbing FlightAware ADS-B
Wed 10:27:36 PM 30.7160 -95.6550 126° Southeast 522 601 30,400 1,800 Climbing FlightAware ADS-B
Wed 10:27:51 PM 30.6930 -95.6186 126° Southeast 520 598 30,800 1,500 Climbing FlightAware ADS-B
Wed 10:28:12 PM 30.6630 -95.5700 126° Southeast 522 601 31,300 1,400 Climbing FlightAware ADS-B
Wed 10:28:21 PM 30.6505 -95.5505 127° Southeast 522 601 31,500 1,161 Climbing FlightAware ADS-B
Wed 10:28:43 PM 30.6200 -95.5020 126° Southeast 522 601 31,900 1,161 Climbing FlightAware ADS-B
Wed 10:28:52 PM 30.6070 -95.4810 126° Southeast 521 600 32,100 1,448 Climbing FlightAware ADS-B
Wed 10:29:12 PM 30.5800 -95.4380 126° Southeast 520 598 32,600 1,548 Climbing FlightAware ADS-B
Wed 10:29:23 PM 30.5632 -95.4111 126° Southeast 519 597 32,900 667 Climbing FlightAware ADS-B
Wed 10:29:48 PM 30.5270 -95.3540 126° Southeast 518 596 33,000 200 Climbing FlightAware ADS-B
Wed 10:29:53 PM 30.5200 -95.3424 125° Southeast 516 594 33,000  Level FlightAware ADS-B
Wed 10:30:18 PM 30.4850 -95.2870 126° Southeast 519 597 33,000  Level FlightAware ADS-B
Wed 10:30:24 PM 30.4769 -95.2740 126° Southeast 518 596 33,000  Level FlightAware ADS-B
Wed 10:30:54 PM 30.4340 -95.2059 126° Southeast 518 596 33,000  Level FlightAware ADS-B
Wed 10:30:55 PM 30.4350 -95.2070 317° Northwest 519 597 33,000  Level FlightAware ADS-B
Wed 10:31:25 PM 30.3905 -95.1368 126° Southeast 518 596 33,000  Level FlightAware ADS-B
Wed 10:31:31 PM 30.3830 -95.1260 129° Southeast 519 597 33,000  Level FlightAware ADS-B
Wed 10:31:59 PM 30.3427 -95.0614 126° Southeast 519 597 33,000  Level FlightAware ADS-B
Wed 10:32:00 PM 30.3400 -95.0580 133° Southeast 520 598 33,000  Level FlightAware ADS-B
Wed 10:32:29 PM 30.2997 -94.9933 126° Southeast 519 597 33,000  Level FlightAware ADS-B
Wed 10:32:37 PM 30.2910 -94.9790 125° Southeast 519 597 33,000  Level FlightAware ADS-B
Wed 10:32:59 PM 30.2570 -94.9261 127° Southeast 518 596 33,000  Level FlightAware ADS-B
Wed 10:33:12 PM 30.2390 -94.8980 127° Southeast 519 597 33,000  Level FlightAware ADS-B
Wed 10:33:30 PM 30.2139 -94.8583 126° Southeast 518 596 33,000  Level FlightAware ADS-B
Wed 10:33:42 PM 30.1960 -94.8300 126° Southeast 519 597 33,000  Level FlightAware ADS-B
Wed 10:34:00 PM 30.1711 -94.7910 126° Southeast 518 596 33,000  Level FlightAware ADS-B
Wed 10:34:18 PM 30.1460 -94.7510 126° Southeast 519 597 33,000  Level FlightAware ADS-B
Wed 10:34:30 PM 30.1279 -94.7233 127° Southeast 518 596 33,000  Level FlightAware ADS-B
Wed 10:34:54 PM 30.0940 -94.6700 126° Southeast 519 597 33,000  Level FlightAware ADS-B
Wed 10:35:01 PM 30.0851 -94.6562 127° Southeast 518 596 33,000  Level FlightAware ADS-B
Wed 10:35:24 PM 30.0510 -94.6030 127° Southeast 519 597 33,000  Level FlightAware ADS-B
Wed 10:35:31 PM 30.0424 -94.5895 126° Southeast 518 596 33,000  Level FlightAware ADS-B
Wed 10:36:01 PM 30.0000 -94.5230 126° Southeast 519 597 33,000  Level FlightAware ADS-B
Wed 10:36:31 PM 29.9570 -94.4570 127° Southeast 518 596 33,000  Level FlightAware ADS-B
Wed 10:37:01 PM 29.9140 -94.3900 127° Southeast 519 597 33,000  Level FlightAware ADS-B
Wed 10:37:32 PM 29.8701 -94.3214 126° Southeast 518 596 33,000  Level FlightAware ADS-B
Wed 10:37:37 PM 29.8630 -94.3100 126° Southeast 519 597 33,000  Level FlightAware ADS-B
Wed 10:38:02 PM 29.8273 -94.2551 127° Southeast 518 596 33,000  Level FlightAware ADS-B
Wed 10:38:07 PM 29.8200 -94.2440 127° Southeast 519 597 33,000  Level FlightAware ADS-B
Wed 10:38:32 PM 29.7842 -94.1883 127° Southeast 518 596 33,000  Level FlightAware ADS-B
Wed 10:38:42 PM 29.7690 -94.1650 127° Southeast 519 597 33,000  Level FlightAware ADS-B
Wed 10:39:03 PM 29.7399 -94.1198 127° Southeast 518 596 33,000  Level FlightAware ADS-B
Wed 10:39:18 PM 29.7183 -94.0868 127° Southeast 517 595 33,000  Level FlightAware ADS-B
Wed 10:39:32 PM 29.6969 -94.0579 130° Southeast 515 593 33,000  Level FlightAware ADS-B
Wed 10:39:48 PM 29.6690 -94.0260 135° Southeast 514 592 33,000  Level FlightAware ADS-B
Wed 10:39:51 PM 29.6647 -94.0216 138° Southeast 513 590 33,000  Level FlightAware ADS-B
Wed 10:40:16 PM 29.6170 -93.9776 141° Southeast 511 588 33,000  Level FlightAware ADS-B
Wed 10:40:30 PM 29.5910 -93.9550 143° Southeast 512 589 33,000  Level FlightAware ADS-B
Wed 10:40:47 PM 29.5597 -93.9285 144° Southeast 512 589 33,000  Level FlightAware ADS-B
Wed 10:41:07 PM 29.5210 -93.8950 143° Southeast 513 590 33,000  Level FlightAware ADS-B
Wed 10:41:17 PM 29.5012 -93.8791 145° Southeast 512 589 33,000  Level FlightAware ADS-B
Wed 10:41:48 PM 29.4420 -93.8289 144° Southeast 511 588 33,000  Level FlightAware ADS-B
Wed 10:42:19 PM 29.3835 -93.7791 143° Southeast 511 588 33,000  Level FlightAware ADS-B
Wed 10:42:50 PM 29.3240 -93.7286 143° Southeast 512 589 33,000  Level FlightAware ADS-B
Wed 10:43:22 PM 29.2639 -93.6775 143° Southeast 510 587 33,000  Level FlightAware ADS-B
Wed 10:44:06 PM 29.1801 -93.6063 143° Southeast 510 587 33,000  Level FlightAware ADS-B
Wed 10:44:40 PM 29.1158 -93.5518 143° Southeast 510 587 33,000  Level FlightAware ADS-B
Wed 10:45:42 PM 28.9980 -93.4524 144° Southeast 510 587 33,000  Level FlightAware ADS-B
Wed 10:46:45 PM 28.8989 -93.3678 144° Southeast 511 588 33,000 -48 Level Houston Center
Wed 10:47:46 PM 28.7856 -93.2719 143° Southeast 510 587 32,900 -49 Descending Houston Center
Wed 10:48:47 PM 28.6714 -93.1778 144° Southeast 508 585 32,900 49 Level Houston Center
Wed 10:49:48 PM 28.5561 -93.0822 144° Southeast 511 588 33,000  Climbing Houston Center
Wed 10:50:49 PM 28.4194 -92.9672 143° Southeast 511 588 32,900  Descending Houston Center
Wed 10:51:50 PM 28.3050 -92.8717 144° Southeast 511 588 33,000 49 Climbing Houston Center
Wed 10:52:51 PM 28.1906 -92.7769 144° Southeast 510 587 33,000 -49 Level Houston Center
Wed 10:53:52 PM 28.0758 -92.6836 144° Southeast 509 586 32,900 -49 Descending Houston Center
Wed 10:54:53 PM 27.9619 -92.5908 144° Southeast 506 582 32,900 49 Level Houston Center
Wed 10:55:55 PM 27.8481 -92.4956 144° Southeast 508 585 33,000 49 Climbing Houston Center
Wed 10:56:56 PM 27.7342 -92.4028 144° Southeast 507 583 33,000  Level Houston Center
Wed 10:57:57 PM 27.6189 -92.3106 145° Southeast 507 583 33,000  Level Houston Center
Wed 10:58:58 PM 27.5042 -92.2164 144° Southeast 510 587 33,000  Level Houston Center
Wed 10:59:59 PM 27.3875 -92.1228 145° Southeast 512 589 33,000  Level Houston Center
Wed 11:01:00 PM 27.2714 -92.0283 144° Southeast 514 592 33,000  Level Houston Center
Wed 11:02:00 PM 27.1701 -91.9364 141° Southeast  Level FlightAware Approximate
Wed 11:09:00 PM 26.4277 -91.3447 144° Southeast  Level FlightAware Approximate
Wed 11:10:00 PM 26.3214 -91.2610 145° Southeast  Level FlightAware Approximate
Wed 11:11:00 PM 26.2146 -91.1780 145° Southeast  Level FlightAware Approximate
Wed 11:12:00 PM 26.1078 -91.0952 145° Southeast  Level FlightAware Approximate
Wed 11:13:00 PM 26.0009 -91.0125 145° Southeast  Level FlightAware Approximate
Wed 11:14:00 PM 25.8940 -90.9299 145° Southeast  Level FlightAware Approximate
Wed 11:15:00 PM 25.7871 -90.8475 145° Southeast  Level FlightAware Approximate
Wed 11:16:00 PM 25.6801 -90.7653 145° Southeast  Level FlightAware Approximate
Wed 11:17:00 PM 25.5730 -90.6832 145° Southeast  Level FlightAware Approximate
Wed 11:18:00 PM 25.4660 -90.6012 145° Southeast  Level FlightAware Approximate
Wed 11:19:00 PM 25.3588 -90.5194 145° Southeast  Level FlightAware Approximate
Wed 11:20:00 PM 25.2525 -90.4364 145° Southeast  Level FlightAware Approximate
Wed 11:21:00 PM 25.1464 -90.3532 145° Southeast  Level FlightAware Approximate
Wed 11:22:00 PM 25.0402 -90.2701 145° Southeast  Level FlightAware Approximate
Wed 11:23:00 PM 24.9340 -90.1871 145° Southeast  Level FlightAware Approximate
Wed 11:24:00 PM 24.8277 -90.1043 145° Southeast  Level FlightAware Approximate
Wed 11:25:00 PM 24.7214 -90.0216 145° Southeast  Level FlightAware Approximate
Wed 11:26:00 PM 24.6148 -89.9389 145° Southeast  Level FlightAware Approximate
Wed 11:27:00 PM 24.5083 -89.8564 145° Southeast  Level FlightAware Approximate
Wed 11:28:00 PM 24.4021 -89.7737 146° Southeast  Level FlightAware Approximate
Wed 11:29:00 PM 24.2936 -89.6943 146° Southeast  Level FlightAware Approximate
Wed 11:30:00 PM 24.1851 -89.6151 146° Southeast  Level FlightAware Approximate
Wed 11:31:00 PM 24.0765 -89.5360 146° Southeast  Level FlightAware Approximate
Wed 11:32:00 PM 23.9693 -89.4553 145° Southeast  Level FlightAware Approximate
Wed 11:33:00 PM 23.8624 -89.3741 145° Southeast  Level FlightAware Approximate
Wed 11:34:00 PM 23.7554 -89.2931 145° Southeast  Level FlightAware Approximate
Wed 11:35:00 PM 23.6484 -89.2122 145° Southeast  Level FlightAware Approximate
Wed 11:36:00 PM 23.5413 -89.1314 145° Southeast  Level FlightAware Approximate
Wed 11:37:00 PM 23.4342 -89.0508 145° Southeast  Level FlightAware Approximate
Wed 11:38:00 PM 23.3271 -88.9703 145° Southeast  Level FlightAware Approximate
Wed 11:39:00 PM 23.2199 -88.8899 145° Southeast  Level FlightAware Approximate
Wed 11:40:00 PM 23.1130 -88.8092 145° Southeast  Level FlightAware Approximate
Wed 11:41:00 PM 23.0064 -88.7281 145° Southeast  Level FlightAware Approximate
Wed 11:42:00 PM 22.8997 -88.6471 145° Southeast  Level FlightAware Approximate
Wed 11:43:00 PM 22.7930 -88.5663 145° Southeast  Level FlightAware Approximate
Wed 11:44:00 PM 22.6863 -88.4855 145° Southeast  Level FlightAware Approximate
Wed 11:45:00 PM 22.5902 -88.3905 137° Southeast  Level FlightAware Approximate
Wed 11:46:00 PM 22.4943 -88.2952 137° Southeast  Level FlightAware Approximate
Wed 11:47:00 PM 22.3984 -88.2000 137° Southeast  Level FlightAware Approximate
Wed 11:48:00 PM 22.3025 -88.1049 137° Southeast  Level FlightAware Approximate
Wed 11:49:00 PM 22.2064 -88.0100 138° Southeast  Level FlightAware Approximate
Wed 11:50:00 PM 22.1104 -87.9152 138° Southeast  Level FlightAware Approximate
Wed 11:51:00 PM 22.0143 -87.8205 138° Southeast  Level FlightAware Approximate
Wed 11:52:00 PM 21.9181 -87.7260 138° Southeast  Level FlightAware Approximate
Wed 11:53:00 PM 21.8218 -87.6316 138° Southeast  Level FlightAware Approximate
Wed 11:54:00 PM 21.7256 -87.5373 138° Southeast  Level FlightAware Approximate
Wed 11:55:00 PM 21.6292 -87.4431 138° Southeast  Level FlightAware Approximate
Wed 11:56:00 PM 21.5328 -87.3491 138° Southeast  Level FlightAware Approximate
Wed 11:57:00 PM 21.4361 -87.2551 138° Southeast  Level FlightAware Approximate
Wed 11:58:00 PM 21.3393 -87.1614 138° Southeast  Level FlightAware Approximate
Wed 11:59:00 PM 21.2425 -87.0677 138° Southeast  Level FlightAware Approximate
Thu 12:00:00 AM 21.1456 -86.9742 138° Southeast  Level FlightAware Approximate
Thu 12:01:00 AM 21.0486 -86.8807 138° Southeast  Level FlightAware Approximate
Thu 12:02:00 AM 20.9520 -86.7869 138° Southeast  Level FlightAware Approximate
Thu 12:03:00 AM 20.8556 -86.6930 138° Southeast  Level FlightAware Approximate
Thu 12:04:00 AM 20.7591 -86.5993 138° Southeast  Level FlightAware Approximate
Thu 12:05:00 AM 20.6625 -86.5056 138° Southeast  Level FlightAware Approximate
Thu 12:06:00 AM 20.5659 -86.4121 138° Southeast  Level FlightAware Approximate
Thu 12:07:00 AM 20.4692 -86.3186 138° Southeast  Level FlightAware Approximate
Thu 12:08:00 AM 20.3725 -86.2253 138° Southeast  Level FlightAware Approximate
Thu 12:09:00 AM 20.2758 -86.1321 138° Southeast  Level FlightAware Approximate
Thu 12:10:00 AM 20.1790 -86.0391 138° Southeast  Level FlightAware Approximate
Thu 12:11:00 AM 20.0822 -85.9461 138° Southeast  Level FlightAware Approximate
Thu 12:12:00 AM 19.9851 -85.8535 138° Southeast  Level FlightAware Approximate
Thu 12:13:00 AM 19.8876 -85.7614 138° Southeast  Level FlightAware Approximate
Thu 12:14:00 AM 19.7900 -85.6695 138° Southeast  Level FlightAware Approximate
Thu 12:15:00 AM 19.6924 -85.5777 138° Southeast  Level FlightAware Approximate
Thu 12:16:00 AM 19.5948 -85.4859 138° Southeast  Level FlightAware Approximate
Thu 12:17:00 AM 19.4971 -85.3943 139° Southeast  Level FlightAware Approximate
Thu 12:18:00 AM 19.3993 -85.3028 139° Southeast  Level FlightAware Approximate
Thu 12:19:00 AM 19.3015 -85.2114 139° Southeast  Level FlightAware Approximate
Thu 12:20:00 AM 19.2037 -85.1202 139° Southeast  Level FlightAware Approximate
Thu 12:21:00 AM 19.1058 -85.0290 139° Southeast  Level FlightAware Approximate
Thu 12:22:00 AM 19.0079 -84.9379 139° Southeast  Level FlightAware Approximate
Thu 12:23:00 AM 18.9099 -84.8470 139° Southeast  Level FlightAware Approximate
Thu 12:24:00 AM 18.8119 -84.7561 139° Southeast  Level FlightAware Approximate
Thu 12:25:00 AM 18.7139 -84.6654 139° Southeast  Level FlightAware Approximate
Thu 12:26:00 AM 18.6158 -84.5748 139° Southeast  Level FlightAware Approximate
Thu 12:27:00 AM 18.5176 -84.4842 139° Southeast  Level FlightAware Approximate
Thu 12:28:00 AM 18.4457 -84.3697 123° Southeast  Level FlightAware Approximate
Thu 12:29:00 AM 18.3719 -84.2564 125° Southeast  Level FlightAware Approximate
Thu 12:30:00 AM 18.2977 -84.1434 125° Southeast  Level FlightAware Approximate
Thu 12:31:00 AM 18.2235 -84.0306 125° Southeast  Level FlightAware Approximate
Thu 12:32:00 AM 18.1492 -83.9178 125° Southeast  Level FlightAware Approximate
Thu 12:33:00 AM 18.0748 -83.8052 125° Southeast  Level FlightAware Approximate
Thu 12:34:00 AM 18.0003 -83.6926 125° Southeast  Level FlightAware Approximate
Thu 12:35:00 AM 17.9198 -83.5855 135° Southeast  Level FlightAware Approximate
Thu 12:36:00 AM 17.8268 -83.4895 135° Southeast  Level FlightAware Approximate
Thu 12:37:00 AM 17.7338 -83.3936 136° Southeast  Level FlightAware Approximate
Thu 12:38:00 AM 17.6407 -83.2978 136° Southeast  Level FlightAware Approximate
Thu 12:39:00 AM 17.5476 -83.2021 136° Southeast  Level FlightAware Approximate
Thu 12:40:00 AM 17.4544 -83.1065 136° Southeast  Level FlightAware Approximate
Thu 12:41:00 AM 17.3608 -83.0113 139° Southeast  Level FlightAware Approximate
Thu 12:42:00 AM 17.2626 -82.9215 139° Southeast  Level FlightAware Approximate
Thu 12:43:00 AM 17.1642 -82.8316 139° Southeast  Level FlightAware Approximate
Thu 12:44:00 AM 17.0658 -82.7419 139° Southeast  Level FlightAware Approximate
Thu 12:45:00 AM 16.9673 -82.6522 139° Southeast  Level FlightAware Approximate
Thu 12:46:00 AM 16.8687 -82.5626 139° Southeast  Level FlightAware Approximate
Thu 12:47:00 AM 16.7701 -82.4731 139° Southeast  Level FlightAware Approximate
Thu 12:48:00 AM 16.6715 -82.3837 139° Southeast  Level FlightAware Approximate
Thu 12:49:00 AM 16.5729 -82.2944 139° Southeast  Level FlightAware Approximate
Thu 12:50:00 AM 16.4742 -82.2052 139° Southeast  Level FlightAware Approximate
Thu 12:51:00 AM 16.3730 -82.1191 141° Southeast  Level FlightAware Approximate
Thu 12:52:00 AM 16.2711 -82.0340 141° Southeast  Level FlightAware Approximate
Thu 12:53:00 AM 16.1691 -81.9491 141° Southeast  Level FlightAware Approximate
Thu 12:54:00 AM 16.0671 -81.8642 141° Southeast  Level FlightAware Approximate
Thu 12:55:00 AM 15.9650 -81.7794 141° Southeast  Level FlightAware Approximate
Thu 12:56:00 AM 15.8629 -81.6947 141° Southeast  Level FlightAware Approximate
Thu 12:57:00 AM 15.7608 -81.6101 141° Southeast  Level FlightAware Approximate
Thu 12:58:00 AM 15.6586 -81.5256 141° Southeast  Level FlightAware Approximate
Thu 12:59:00 AM 15.5564 -81.4412 141° Southeast  Level FlightAware Approximate
Thu 01:00:00 AM 15.4542 -81.3568 141° Southeast  Level FlightAware Approximate
Thu 01:01:00 AM 15.3519 -81.2726 142° Southeast  Level FlightAware Approximate
Thu 01:02:00 AM 15.2497 -81.1884 142° Southeast  Level FlightAware Approximate
Thu 01:03:00 AM 15.1473 -81.1043 142° Southeast  Level FlightAware Approximate
Thu 01:04:00 AM 15.0450 -81.0202 142° Southeast  Level FlightAware Approximate
Thu 01:05:00 AM 14.9430 -80.9359 141° Southeast  Level FlightAware Approximate
Thu 01:06:00 AM 14.8412 -80.8512 141° Southeast  Level FlightAware Approximate
Thu 01:07:00 AM 14.7393 -80.7666 141° Southeast  Level FlightAware Approximate
Thu 01:08:00 AM 14.6375 -80.6821 141° Southeast  Level FlightAware Approximate
Thu 01:09:00 AM 14.5356 -80.5977 141° Southeast  Level FlightAware Approximate
Thu 01:10:00 AM 14.4337 -80.5134 141° Southeast  Level FlightAware Approximate
Thu 01:11:00 AM 14.3317 -80.4291 141° Southeast  Level FlightAware Approximate
Thu 01:12:00 AM 14.2297 -80.3449 141° Southeast  Level FlightAware Approximate
Thu 01:13:00 AM 14.1277 -80.2608 141° Southeast  Level FlightAware Approximate
Thu 01:14:00 AM 14.0257 -80.1768 141° Southeast  Level FlightAware Approximate
Thu 01:15:00 AM 13.9236 -80.0928 141° Southeast  Level FlightAware Approximate
Thu 01:16:00 AM 13.8215 -80.0089 141° Southeast  Level FlightAware Approximate
Thu 01:17:00 AM 13.7194 -79.9251 141° Southeast  Level FlightAware Approximate
Thu 01:18:00 AM 13.6172 -79.8414 141° Southeast  Level FlightAware Approximate
Thu 01:19:00 AM 13.5148 -79.7580 142° Southeast  Level FlightAware Approximate
Thu 01:20:00 AM 13.4122 -79.6748 142° Southeast  Level FlightAware Approximate
Thu 01:21:00 AM 13.3097 -79.5918 142° Southeast  Level FlightAware Approximate
Thu 01:22:00 AM 13.2070 -79.5088 142° Southeast  Level FlightAware Approximate
Thu 01:23:00 AM 13.1044 -79.4259 142° Southeast  Level FlightAware Approximate
Thu 01:24:00 AM 13.0017 -79.3431 142° Southeast  Level FlightAware Approximate
Thu 01:25:00 AM 12.8990 -79.2603 142° Southeast  Level FlightAware Approximate
Thu 01:26:00 AM 12.7962 -79.1776 142° Southeast  Level FlightAware Approximate
Thu 01:27:00 AM 12.6935 -79.0949 142° Southeast  Level FlightAware Approximate
Thu 01:28:00 AM 12.5907 -79.0124 142° Southeast  Level FlightAware Approximate
Thu 01:29:00 AM 12.4879 -78.9299 142° Southeast  Level FlightAware Approximate
Thu 01:30:00 AM 12.3850 -78.8474 142° Southeast  Level FlightAware Approximate
Thu 01:31:00 AM 12.2822 -78.7651 142° Southeast  Level FlightAware Approximate
Thu 01:32:00 AM 12.1793 -78.6828 142° Southeast  Level FlightAware Approximate
Thu 01:33:00 AM 12.0764 -78.6005 142° Southeast  Level FlightAware Approximate
Thu 01:34:00 AM 11.9734 -78.5183 142° Southeast  Level FlightAware Approximate
Thu 01:35:00 AM 11.8703 -78.4361 142° Southeast  Level FlightAware Approximate
Thu 01:36:00 AM 11.7671 -78.3539 142° Southeast  Level FlightAware Approximate
Thu 01:37:00 AM 11.6639 -78.2717 142° Southeast  Level FlightAware Approximate
Thu 01:38:00 AM 11.5607 -78.1897 142° Southeast  Level FlightAware Approximate
Thu 01:39:00 AM 11.4575 -78.1076 142° Southeast  Level FlightAware Approximate
Thu 01:40:00 AM 11.3542 -78.0257 142° Southeast  Level FlightAware Approximate
Thu 01:41:00 AM 11.2510 -77.9438 142° Southeast  Level FlightAware Approximate
Thu 01:42:00 AM 11.1477 -77.8619 142° Southeast  Level FlightAware Approximate
Thu 01:43:00 AM 11.0443 -77.7802 142° Southeast  Level FlightAware Approximate
Thu 01:44:00 AM 10.9410 -77.6984 142° Southeast  Level FlightAware Approximate
Thu 01:45:00 AM 10.8376 -77.6168 142° Southeast  Level FlightAware Approximate
Thu 01:46:00 AM 10.7343 -77.5351 142° Southeast  Level FlightAware Approximate
Thu 01:47:00 AM 10.6308 -77.4536 142° Southeast  Level FlightAware Approximate
Thu 01:48:00 AM 10.5274 -77.3721 142° Southeast  Level FlightAware Approximate
Thu 01:49:00 AM 10.4240 -77.2906 142° Southeast  Level FlightAware Approximate
Thu 01:50:00 AM 10.3205 -77.2092 142° Southeast  Level FlightAware Approximate
Thu 01:51:00 AM 10.2170 -77.1279 142° Southeast  Level FlightAware Approximate
Thu 01:52:00 AM 10.1135 -77.0466 142° Southeast  Level FlightAware Approximate
Thu 01:53:00 AM 10.0100 -76.9654 142° Southeast  Level FlightAware Approximate
Thu 01:54:00 AM 9.9064 -76.8842 142° Southeast  Level FlightAware Approximate
Thu 01:55:00 AM 9.8028 -76.8031 142° Southeast  Level FlightAware Approximate
Thu 01:56:00 AM 9.6993 -76.7220 142° Southeast  Level FlightAware Approximate
Thu 01:57:00 AM 9.5956 -76.6410 142° Southeast  Level FlightAware Approximate
Thu 01:58:00 AM 9.4920 -76.5600 142° Southeast  Level FlightAware Approximate
Thu 01:59:00 AM 9.3884 -76.4790 142° Southeast  Level FlightAware Approximate
Thu 02:00:00 AM 9.2847 -76.3982 142° Southeast  Level FlightAware Approximate
Thu 02:01:00 AM 9.1810 -76.3173 142° Southeast  Level FlightAware Approximate
Thu 02:02:00 AM 9.0773 -76.2365 142° Southeast  Level FlightAware Approximate
Thu 02:03:00 AM 8.9736 -76.1558 142° Southeast  Level FlightAware Approximate
Thu 02:04:00 AM 8.8699 -76.0751 142° Southeast  Level FlightAware Approximate
Thu 02:05:00 AM 8.7661 -75.9945 142° Southeast  Level FlightAware Approximate
Thu 02:06:00 AM 8.6623 -75.9139 142° Southeast  Level FlightAware Approximate
Thu 02:07:00 AM 8.5585 -75.8333 142° Southeast  Level FlightAware Approximate
Thu 02:08:00 AM 8.4547 -75.7528 143° Southeast  Level FlightAware Approximate
Thu 02:09:00 AM 8.3509 -75.6723 143° Southeast  Level FlightAware Approximate
Thu 02:10:00 AM 8.2471 -75.5919 143° Southeast  Level FlightAware Approximate
Thu 02:11:00 AM 8.1432 -75.5115 143° Southeast  Level FlightAware Approximate
Thu 02:12:00 AM 8.0392 -75.4310 143° Southeast  Level FlightAware Approximate
Thu 02:13:00 AM 7.9351 -75.3506 143° Southeast  Level FlightAware Approximate
Thu 02:14:00 AM 7.8310 -75.2702 143° Southeast  Level FlightAware Approximate
Thu 02:15:00 AM 7.7272 -75.1894 142° Southeast  Level FlightAware Approximate
Thu 02:16:00 AM 7.6235 -75.1085 142° Southeast  Level FlightAware Approximate
Thu 02:17:00 AM 7.5199 -75.0276 142° Southeast  Level FlightAware Approximate
Thu 02:18:00 AM 7.4162 -74.9467 142° Southeast  Level FlightAware Approximate
Thu 02:19:00 AM 7.3126 -74.8659 142° Southeast  Level FlightAware Approximate
Thu 02:20:00 AM 7.2089 -74.7851 142° Southeast  Level FlightAware Approximate
Thu 02:21:00 AM 7.1052 -74.7043 142° Southeast  Level FlightAware Approximate
Thu 02:22:00 AM 7.0014 -74.6236 142° Southeast  Level FlightAware Approximate
Thu 02:23:00 AM 6.8977 -74.5429 142° Southeast  Level FlightAware Approximate
Thu 02:24:00 AM 6.7940 -74.4622 142° Southeast  Level FlightAware Approximate
Thu 02:25:00 AM 6.6902 -74.3816 142° Southeast  Level FlightAware Approximate
Thu 02:26:00 AM 6.5864 -74.3010 142° Southeast  Level FlightAware Approximate
Thu 02:27:00 AM 6.4826 -74.2205 142° Southeast  Level FlightAware Approximate
Thu 02:28:00 AM 6.3788 -74.1400 142° Southeast  Level FlightAware Approximate
Thu 02:29:00 AM 6.2750 -74.0595 142° Southeast  Level FlightAware Approximate
Thu 02:30:00 AM 6.1712 -73.9790 142° Southeast  Level FlightAware Approximate
Thu 02:31:00 AM 6.0673 -73.8986 142° Southeast  Level FlightAware Approximate
Thu 02:32:00 AM 5.9635 -73.8182 142° Southeast  Level FlightAware Approximate
Thu 02:33:00 AM 5.8596 -73.7378 142° Southeast  Level FlightAware Approximate
Thu 02:34:00 AM 5.7558 -73.6575 142° Southeast  Level FlightAware Approximate
Thu 02:35:00 AM 5.6519 -73.5772 142° Southeast  Level FlightAware Approximate
Thu 02:36:00 AM 5.5475 -73.4975 143° Southeast  Level FlightAware Approximate
Thu 02:37:00 AM 5.4430 -73.4182 143° Southeast  Level FlightAware Approximate
Thu 02:38:00 AM 5.3382 -73.3387 143° Southeast  Level FlightAware Approximate
Thu 02:39:00 AM 5.2334 -73.2592 143° Southeast  Level FlightAware Approximate
Thu 02:40:00 AM 5.1286 -73.1798 143° Southeast  Level FlightAware Approximate
Thu 02:41:00 AM 5.0238 -73.1004 143° Southeast  Level FlightAware Approximate
Thu 02:42:00 AM 4.9190 -73.0211 143° Southeast  Level FlightAware Approximate
Thu 02:43:00 AM 4.8142 -72.9417 143° Southeast  Level FlightAware Approximate
Thu 02:44:00 AM 4.7094 -72.8624 143° Southeast  Level FlightAware Approximate
Thu 02:45:00 AM 4.6045 -72.7831 143° Southeast  Level FlightAware Approximate
Thu 02:46:00 AM 4.4997 -72.7038 143° Southeast  Level FlightAware Approximate
Thu 02:47:00 AM 4.3950 -72.6244 143° Southeast  Level FlightAware Approximate
Thu 02:48:00 AM 4.2903 -72.5449 143° Southeast  Level FlightAware Approximate
Thu 02:49:00 AM 4.1856 -72.4655 143° Southeast  Level FlightAware Approximate
Thu 02:50:00 AM 4.0808 -72.3861 143° Southeast  Level FlightAware Approximate
Thu 02:51:00 AM 3.9761 -72.3068 143° Southeast  Level FlightAware Approximate
Thu 02:52:00 AM 3.8714 -72.2274 143° Southeast  Level FlightAware Approximate
Thu 02:53:00 AM 3.7666 -72.1481 143° Southeast  Level FlightAware Approximate
Thu 02:54:00 AM 3.6618 -72.0688 143° Southeast  Level FlightAware Approximate
Thu 02:55:00 AM 3.5571 -71.9895 143° Southeast  Level FlightAware Approximate
Thu 02:56:00 AM 3.4523 -71.9103 143° Southeast  Level FlightAware Approximate
Thu 02:57:00 AM 3.3480 -71.8304 142° Southeast  Level FlightAware Approximate
Thu 02:58:00 AM 3.2439 -71.7503 142° Southeast  Level FlightAware Approximate
Thu 02:59:00 AM 3.1398 -71.6702 142° Southeast  Level FlightAware Approximate
Thu 03:00:00 AM 3.0357 -71.5900 142° Southeast  Level FlightAware Approximate
Thu 03:01:00 AM 2.9316 -71.5099 142° Southeast  Level FlightAware Approximate
Thu 03:02:00 AM 2.8275 -71.4298 142° Southeast  Level FlightAware Approximate
Thu 03:03:00 AM 2.7233 -71.3498 142° Southeast  Level FlightAware Approximate
Thu 03:04:00 AM 2.6192 -71.2697 142° Southeast  Level FlightAware Approximate
Thu 03:05:00 AM 2.5151 -71.1897 142° Southeast  Level FlightAware Approximate
Thu 03:06:00 AM 2.4109 -71.1096 142° Southeast  Level FlightAware Approximate
Thu 03:07:00 AM 2.3065 -71.0301 143° Southeast  Level FlightAware Approximate
Thu 03:08:00 AM 2.2011 -70.9517 143° Southeast  Level FlightAware Approximate
Thu 03:09:00 AM 2.0956 -70.8734 143° Southeast  Level FlightAware Approximate
Thu 03:10:00 AM 1.9902 -70.7951 143° Southeast  Level FlightAware Approximate
Thu 03:11:00 AM 1.8848 -70.7168 143° Southeast  Level FlightAware Approximate
Thu 03:12:00 AM 1.7794 -70.6386 143° Southeast  Level FlightAware Approximate
Thu 03:13:00 AM 1.6739 -70.5603 143° Southeast  Level FlightAware Approximate
Thu 03:14:00 AM 1.5685 -70.4820 143° Southeast  Level FlightAware Approximate
Thu 03:15:00 AM 1.4631 -70.4038 143° Southeast  Level FlightAware Approximate
Thu 03:16:00 AM 1.3576 -70.3255 143° Southeast  Level FlightAware Approximate
Thu 03:17:00 AM 1.2522 -70.2473 143° Southeast  Level FlightAware Approximate
Thu 03:18:00 AM 1.1528 -70.1616 138° Southeast  Level FlightAware Approximate
Thu 03:19:00 AM 1.0547 -70.0743 138° Southeast  Level FlightAware Approximate
Thu 03:20:00 AM 0.9567 -69.9870 138° Southeast  Level FlightAware Approximate
Thu 03:21:00 AM 0.8586 -69.8997 138° Southeast  Level FlightAware Approximate
Thu 03:22:00 AM 0.7606 -69.8123 138° Southeast  Level FlightAware Approximate
Thu 03:23:00 AM 0.6625 -69.7250 138° Southeast  Level FlightAware Approximate
Thu 03:24:00 AM 0.5644 -69.6377 138° Southeast  Level FlightAware Approximate
Thu 03:25:00 AM 0.4663 -69.5504 138° Southeast  Level FlightAware Approximate
Thu 03:26:00 AM 0.3683 -69.4632 138° Southeast  Level FlightAware Approximate
Thu 03:27:00 AM 0.2702 -69.3759 138° Southeast  Level FlightAware Approximate
Thu 03:28:00 AM 0.1721 -69.2886 138° Southeast  Level FlightAware Approximate
Thu 03:29:00 AM 0.0741 -69.2013 138° Southeast  Level FlightAware Approximate
Thu 03:30:00 AM -0.0240 -69.1140 138° Southeast  Level FlightAware Approximate
Thu 03:31:00 AM -0.1221 -69.0267 138° Southeast  Level FlightAware Approximate
Thu 03:32:00 AM -0.2201 -68.9394 138° Southeast  Level FlightAware Approximate
Thu 03:33:00 AM -0.3182 -68.8521 138° Southeast  Level FlightAware Approximate
Thu 03:34:00 AM -0.4163 -68.7648 138° Southeast  Level FlightAware Approximate
Thu 03:35:00 AM -0.5143 -68.6775 138° Southeast  Level FlightAware Approximate
Thu 03:36:00 AM -0.6124 -68.5902 138° Southeast  Level FlightAware Approximate
Thu 03:37:00 AM -0.7105 -68.5029 138° Southeast  Level FlightAware Approximate
Thu 03:38:00 AM -0.8086 -68.4156 138° Southeast  Level FlightAware Approximate
Thu 03:39:00 AM -0.9066 -68.3283 138° Southeast  Level FlightAware Approximate
Thu 03:40:00 AM -1.0047 -68.2410 138° Southeast  Level FlightAware Approximate
Thu 03:41:00 AM -1.1027 -68.1537 138° Southeast  Level FlightAware Approximate
Thu 03:42:00 AM -1.2008 -68.0664 138° Southeast  Level FlightAware Approximate
Thu 03:43:00 AM -1.2988 -67.9790 138° Southeast  Level FlightAware Approximate
Thu 03:44:00 AM -1.3969 -67.8917 138° Southeast  Level FlightAware Approximate
Thu 03:45:00 AM -1.4949 -67.8044 138° Southeast  Level FlightAware Approximate
Thu 03:46:00 AM -1.5930 -67.7170 138° Southeast  Level FlightAware Approximate
Thu 03:47:00 AM -1.6910 -67.6297 138° Southeast  Level FlightAware Approximate
Thu 03:48:00 AM -1.7890 -67.5423 138° Southeast  Level FlightAware Approximate
Thu 03:49:00 AM -1.8871 -67.4549 138° Southeast  Level FlightAware Approximate
Thu 03:50:00 AM -1.9851 -67.3675 138° Southeast  Level FlightAware Approximate
Thu 03:51:00 AM -2.0831 -67.2801 138° Southeast  Level FlightAware Approximate
Thu 03:52:00 AM -2.1811 -67.1927 138° Southeast  Level FlightAware Approximate
Thu 03:53:00 AM -2.2792 -67.1053 138° Southeast  Level FlightAware Approximate
Thu 03:54:00 AM -2.3772 -67.0179 138° Southeast  Level FlightAware Approximate
Thu 03:55:00 AM -2.4752 -66.9304 138° Southeast  Level FlightAware Approximate
Thu 03:56:00 AM -2.5732 -66.8430 138° Southeast  Level FlightAware Approximate
Thu 03:57:00 AM -2.6711 -66.7555 138° Southeast  Level FlightAware Approximate
Thu 03:58:00 AM -2.7691 -66.6680 138° Southeast  Level FlightAware Approximate
Thu 03:59:00 AM -2.8671 -66.5805 138° Southeast  Level FlightAware Approximate
Thu 04:00:00 AM -2.9651 -66.4930 138° Southeast  Level FlightAware Approximate
Thu 04:01:00 AM -3.0630 -66.4055 138° Southeast  Level FlightAware Approximate
Thu 04:02:00 AM -3.1610 -66.3179 138° Southeast  Level FlightAware Approximate
Thu 04:03:00 AM -3.2589 -66.2303 138° Southeast  Level FlightAware Approximate
Thu 04:04:00 AM -3.3569 -66.1428 138° Southeast  Level FlightAware Approximate
Thu 04:05:00 AM -3.4548 -66.0552 138° Southeast  Level FlightAware Approximate
Thu 04:06:00 AM -3.5527 -65.9676 138° Southeast  Level FlightAware Approximate
Thu 04:07:00 AM -3.6507 -65.8799 138° Southeast  Level FlightAware Approximate
Thu 04:08:00 AM -3.7486 -65.7923 138° Southeast  Level FlightAware Approximate
Thu 04:09:00 AM -3.8465 -65.7046 138° Southeast  Level FlightAware Approximate
Thu 04:10:00 AM -3.9444 -65.6169 138° Southeast  Level FlightAware Approximate
Thu 04:11:00 AM -4.0422 -65.5292 138° Southeast  Level FlightAware Approximate
Thu 04:12:00 AM -4.1401 -65.4415 138° Southeast  Level FlightAware Approximate
Thu 04:13:00 AM -4.2380 -65.3537 138° Southeast  Level FlightAware Approximate
Thu 04:14:00 AM -4.3358 -65.2659 138° Southeast  Level FlightAware Approximate
Thu 04:15:00 AM -4.4337 -65.1781 138° Southeast  Level FlightAware Approximate
Thu 04:16:00 AM -4.5315 -65.0903 138° Southeast  Level FlightAware Approximate
Thu 04:17:00 AM -4.6293 -65.0025 138° Southeast  Level FlightAware Approximate
Thu 04:18:00 AM -4.7271 -64.9146 138° Southeast  Level FlightAware Approximate
Thu 04:19:00 AM -4.8249 -64.8267 138° Southeast  Level FlightAware Approximate
Thu 04:20:00 AM -4.9227 -64.7388 138° Southeast  Level FlightAware Approximate
Thu 04:21:00 AM -5.0205 -64.6508 138° Southeast  Level FlightAware Approximate
Thu 04:22:00 AM -5.1182 -64.5628 138° Southeast  Level FlightAware Approximate
Thu 04:23:00 AM -5.2160 -64.4748 138° Southeast  Level FlightAware Approximate
Thu 04:24:00 AM -5.3137 -64.3868 138° Southeast  Level FlightAware Approximate
Thu 04:25:00 AM -5.4115 -64.2988 138° Southeast  Level FlightAware Approximate
Thu 04:26:00 AM -5.5092 -64.2107 138° Southeast  Level FlightAware Approximate
Thu 04:27:00 AM -5.6069 -64.1226 138° Southeast  Level FlightAware Approximate
Thu 04:28:00 AM -5.7046 -64.0344 138° Southeast  Level FlightAware Approximate
Thu 04:29:00 AM -5.8022 -63.9462 138° Southeast  Level FlightAware Approximate
Thu 04:30:00 AM -5.8999 -63.8580 138° Southeast  Level FlightAware Approximate
Thu 04:31:00 AM -5.9976 -63.7698 138° Southeast  Level FlightAware Approximate
Thu 04:32:00 AM -6.0952 -63.6815 138° Southeast  Level FlightAware Approximate
Thu 04:33:00 AM -6.1928 -63.5932 138° Southeast  Level FlightAware Approximate
Thu 04:34:00 AM -6.2904 -63.5049 138° Southeast  Level FlightAware Approximate
Thu 04:35:00 AM -6.3880 -63.4165 138° Southeast  Level FlightAware Approximate
Thu 04:36:00 AM -6.4859 -63.3278 138° Southeast  Level FlightAware Approximate
Thu 04:37:00 AM -6.5838 -63.2391 138° Southeast  Level FlightAware Approximate
Thu 04:38:00 AM -6.6817 -63.1503 138° Southeast  Level FlightAware Approximate
Thu 04:39:00 AM -6.7796 -63.0615 138° Southeast  Level FlightAware Approximate
Thu 04:40:00 AM -6.8774 -62.9726 138° Southeast  Level FlightAware Approximate
Thu 04:41:00 AM -6.9753 -62.8837 138° Southeast  Level FlightAware Approximate
Thu 04:42:00 AM -7.0731 -62.7948 138° Southeast  Level FlightAware Approximate
Thu 04:43:00 AM -7.1709 -62.7058 138° Southeast  Level FlightAware Approximate
Thu 04:44:00 AM -7.2687 -62.6168 138° Southeast  Level FlightAware Approximate
Thu 04:45:00 AM -7.3665 -62.5278 138° Southeast  Level FlightAware Approximate
Thu 04:46:00 AM -7.4642 -62.4387 138° Southeast  Level FlightAware Approximate
Thu 04:47:00 AM -7.5620 -62.3496 138° Southeast  Level FlightAware Approximate
Thu 04:48:00 AM -7.6597 -62.2604 138° Southeast  Level FlightAware Approximate
Thu 04:49:00 AM -7.7574 -62.1712 138° Southeast  Level FlightAware Approximate
Thu 04:50:00 AM -7.8551 -62.0820 138° Southeast  Level FlightAware Approximate
Thu 04:51:00 AM -7.9527 -61.9927 138° Southeast  Level FlightAware Approximate
Thu 04:52:00 AM -8.0504 -61.9034 138° Southeast  Level FlightAware Approximate
Thu 04:53:00 AM -8.1480 -61.8140 138° Southeast  Level FlightAware Approximate
Thu 04:54:00 AM -8.2456 -61.7246 138° Southeast  Level FlightAware Approximate
Thu 04:55:00 AM -8.3432 -61.6352 138° Southeast  Level FlightAware Approximate
Thu 04:56:00 AM -8.4407 -61.5457 138° Southeast  Level FlightAware Approximate
Thu 04:57:00 AM -8.5383 -61.4561 138° Southeast  Level FlightAware Approximate
Thu 04:58:00 AM -8.6358 -61.3665 138° Southeast  Level FlightAware Approximate
Thu 04:59:00 AM -8.7333 -61.2769 138° Southeast  Level FlightAware Approximate
Thu 05:00:00 AM -8.8308 -61.1872 138° Southeast  Level FlightAware Approximate
Thu 05:01:00 AM -8.9282 -61.0975 138° Southeast  Level FlightAware Approximate
Thu 05:02:00 AM -9.0257 -61.0077 138° Southeast  Level FlightAware Approximate
Thu 05:03:00 AM -9.1231 -60.9178 138° Southeast  Level FlightAware Approximate
Thu 05:04:00 AM -9.2205 -60.8280 138° Southeast  Level FlightAware Approximate
Thu 05:05:00 AM -9.3179 -60.7380 138° Southeast  Level FlightAware Approximate
Thu 05:06:00 AM -9.4152 -60.6480 138° Southeast  Level FlightAware Approximate
Thu 05:07:00 AM -9.5126 -60.5580 138° Southeast  Level FlightAware Approximate
Thu 05:08:00 AM -9.6098 -60.4679 138° Southeast  Level FlightAware Approximate
Thu 05:09:00 AM -9.7071 -60.3778 138° Southeast  Level FlightAware Approximate
Thu 05:10:00 AM -9.8044 -60.2876 138° Southeast  Level FlightAware Approximate
Thu 05:11:00 AM -9.9016 -60.1974 138° Southeast  Level FlightAware Approximate
Thu 05:12:00 AM -9.9988 -60.1071 138° Southeast  Level FlightAware Approximate
Thu 05:13:00 AM -10.0960 -60.0167 138° Southeast  Level FlightAware Approximate
Thu 05:14:00 AM -10.1932 -59.9263 138° Southeast  Level FlightAware Approximate
Thu 05:15:00 AM -10.2903 -59.8359 138° Southeast  Level FlightAware Approximate
Thu 05:16:00 AM -10.3874 -59.7454 137° Southeast  Level FlightAware Approximate
Thu 05:17:00 AM -10.4845 -59.6548 137° Southeast  Level FlightAware Approximate
Thu 05:18:00 AM -10.5816 -59.5642 137° Southeast  Level FlightAware Approximate
Thu 05:19:00 AM -10.6786 -59.4735 137° Southeast  Level FlightAware Approximate
Thu 05:20:00 AM -10.7756 -59.3828 137° Southeast  Level FlightAware Approximate
Thu 05:21:00 AM -10.8726 -59.2920 137° Southeast  Level FlightAware Approximate
Thu 05:22:00 AM -10.9696 -59.2011 137° Southeast  Level FlightAware Approximate
Thu 05:23:00 AM -11.0665 -59.1102 137° Southeast  Level FlightAware Approximate
Thu 05:24:00 AM -11.1634 -59.0192 137° Southeast  Level FlightAware Approximate
Thu 05:25:00 AM -11.2603 -58.9282 137° Southeast  Level FlightAware Approximate
Thu 05:26:00 AM -11.3571 -58.8371 137° Southeast  Level FlightAware Approximate
Thu 05:27:00 AM -11.4539 -58.7459 137° Southeast  Level FlightAware Approximate
Thu 05:28:00 AM -11.5507 -58.6547 137° Southeast  Level FlightAware Approximate
Thu 05:29:00 AM -11.6475 -58.5634 137° Southeast  Level FlightAware Approximate
Thu 05:30:00 AM -11.7442 -58.4720 137° Southeast  Level FlightAware Approximate
Thu 05:31:00 AM -11.8409 -58.3806 137° Southeast  Level FlightAware Approximate
Thu 05:32:00 AM -11.9376 -58.2892 137° Southeast  Level FlightAware Approximate
Thu 05:33:00 AM -12.0342 -58.1976 137° Southeast  Level FlightAware Approximate
Thu 05:34:00 AM -12.1308 -58.1060 137° Southeast  Level FlightAware Approximate
Thu 05:35:00 AM -12.2274 -58.0143 137° Southeast  Level FlightAware Approximate
Thu 05:36:00 AM -12.3239 -57.9226 137° Southeast  Level FlightAware Approximate
Thu 05:37:00 AM -12.4205 -57.8308 137° Southeast  Level FlightAware Approximate
Thu 05:38:00 AM -12.5170 -57.7389 137° Southeast  Level FlightAware Approximate
Thu 05:39:00 AM -12.6134 -57.6469 137° Southeast  Level FlightAware Approximate
Thu 05:40:00 AM -12.7099 -57.5549 137° Southeast  Level FlightAware Approximate
Thu 05:41:00 AM -12.8062 -57.4628 137° Southeast  Level FlightAware Approximate
Thu 05:42:00 AM -12.9026 -57.3707 137° Southeast  Level FlightAware Approximate
Thu 05:43:00 AM -12.9990 -57.2784 137° Southeast  Level FlightAware Approximate
Thu 05:44:00 AM -13.0953 -57.1861 137° Southeast  Level FlightAware Approximate
Thu 05:45:00 AM -13.1915 -57.0938 137° Southeast  Level FlightAware Approximate
Thu 05:46:00 AM -13.2878 -57.0013 137° Southeast  Level FlightAware Approximate
Thu 05:47:00 AM -13.3840 -56.9088 137° Southeast  Level FlightAware Approximate
Thu 05:48:00 AM -13.4801 -56.8162 137° Southeast  Level FlightAware Approximate
Thu 05:49:00 AM -13.5763 -56.7235 137° Southeast  Level FlightAware Approximate
Thu 05:50:00 AM -13.6724 -56.6308 137° Southeast  Level FlightAware Approximate
Thu 05:51:00 AM -13.7684 -56.5380 137° Southeast  Level FlightAware Approximate
Thu 05:52:00 AM -13.8645 -56.4451 137° Southeast  Level FlightAware Approximate
Thu 05:53:00 AM -13.9605 -56.3521 137° Southeast  Level FlightAware Approximate
Thu 05:54:00 AM -14.0564 -56.2591 137° Southeast  Level FlightAware Approximate
Thu 05:55:00 AM -14.1523 -56.1659 137° Southeast  Level FlightAware Approximate
Thu 05:56:00 AM -14.2482 -56.0727 137° Southeast  Level FlightAware Approximate
Thu 05:57:00 AM -14.3441 -55.9795 137° Southeast  Level FlightAware Approximate
Thu 05:58:00 AM -14.4399 -55.8861 137° Southeast  Level FlightAware Approximate
Thu 05:59:00 AM -14.5357 -55.7926 137° Southeast  Level FlightAware Approximate
Thu 06:00:00 AM -14.6314 -55.6991 137° Southeast  Level FlightAware Approximate
Thu 06:01:00 AM -14.7271 -55.6055 137° Southeast  Level FlightAware Approximate
Thu 06:02:00 AM -14.8228 -55.5118 137° Southeast  Level FlightAware Approximate
Thu 06:03:00 AM -14.9184 -55.4180 137° Southeast  Level FlightAware Approximate
Thu 06:04:00 AM -15.0140 -55.3242 137° Southeast  Level FlightAware Approximate
Thu 06:05:00 AM -15.1096 -55.2303 137° Southeast  Level FlightAware Approximate
Thu 06:06:00 AM -15.2051 -55.1362 136° Southeast  Level FlightAware Approximate
Thu 06:07:00 AM -15.3005 -55.0421 136° Southeast  Level FlightAware Approximate
Thu 06:08:00 AM -15.3960 -54.9479 136° Southeast  Level FlightAware Approximate
Thu 06:09:00 AM -15.4914 -54.8536 136° Southeast  Level FlightAware Approximate
Thu 06:10:00 AM -15.5867 -54.7593 136° Southeast  Level FlightAware Approximate
Thu 06:11:00 AM -15.6821 -54.6648 136° Southeast  Level FlightAware Approximate
Thu 06:12:00 AM -15.7773 -54.5703 136° Southeast  Level FlightAware Approximate
Thu 06:13:00 AM -15.8726 -54.4756 136° Southeast  Level FlightAware Approximate
Thu 06:14:00 AM -15.9677 -54.3809 136° Southeast  Level FlightAware Approximate
Thu 06:15:00 AM -16.0629 -54.2861 136° Southeast  Level FlightAware Approximate
Thu 06:16:00 AM -16.1580 -54.1912 136° Southeast  Level FlightAware Approximate
Thu 06:17:00 AM -16.2531 -54.0962 136° Southeast  Level FlightAware Approximate
Thu 06:18:00 AM -16.3481 -54.0011 136° Southeast  Level FlightAware Approximate
Thu 06:19:00 AM -16.4431 -53.9059 136° Southeast  Level FlightAware Approximate
Thu 06:20:00 AM -16.5380 -53.8107 136° Southeast  Level FlightAware Approximate
Thu 06:21:00 AM -16.6329 -53.7153 136° Southeast  Level FlightAware Approximate
Thu 06:22:00 AM -16.7278 -53.6198 136° Southeast  Level FlightAware Approximate
Thu 06:23:00 AM -16.8226 -53.5243 136° Southeast  Level FlightAware Approximate
Thu 06:24:00 AM -16.9174 -53.4286 136° Southeast  Level FlightAware Approximate
Thu 06:25:00 AM -17.0121 -53.3329 136° Southeast  Level FlightAware Approximate
Thu 06:26:00 AM -17.1068 -53.2370 136° Southeast  Level FlightAware Approximate
Thu 06:27:00 AM -17.2014 -53.1411 136° Southeast  Level FlightAware Approximate
Thu 06:28:00 AM -17.2960 -53.0450 136° Southeast  Level FlightAware Approximate
Thu 06:29:00 AM -17.3905 -52.9489 136° Southeast  Level FlightAware Approximate
Thu 06:30:00 AM -17.4850 -52.8527 136° Southeast  Level FlightAware Approximate
Thu 06:31:00 AM -17.5794 -52.7563 136° Southeast  Level FlightAware Approximate
Thu 06:32:00 AM -17.6738 -52.6599 136° Southeast  Level FlightAware Approximate
Thu 06:33:00 AM -17.7682 -52.5633 136° Southeast  Level FlightAware Approximate
Thu 06:34:00 AM -17.8625 -52.4667 136° Southeast  Level FlightAware Approximate
Thu 06:35:00 AM -17.9568 -52.3699 136° Southeast  Level FlightAware Approximate
Thu 06:36:00 AM -18.0510 -52.2731 136° Southeast  Level FlightAware Approximate
Thu 06:37:00 AM -18.1451 -52.1762 136° Southeast  Level FlightAware Approximate
Thu 06:38:00 AM -18.2392 -52.0791 136° Southeast  Level FlightAware Approximate
Thu 06:39:00 AM -18.3333 -51.9819 136° Southeast  Level FlightAware Approximate
Thu 06:40:00 AM -18.4273 -51.8847 136° Southeast  Level FlightAware Approximate
Thu 06:41:00 AM -18.5213 -51.7873 136° Southeast  Level FlightAware Approximate
Thu 06:42:00 AM -18.6152 -51.6898 135° Southeast  Level FlightAware Approximate
Thu 06:43:00 AM -18.7091 -51.5922 135° Southeast  Level FlightAware Approximate
Thu 06:44:00 AM -18.8029 -51.4945 135° Southeast  Level FlightAware Approximate
Thu 06:45:00 AM -18.8966 -51.3967 135° Southeast  Level FlightAware Approximate
Thu 06:46:00 AM -18.9904 -51.2988 135° Southeast  Level FlightAware Approximate
Thu 06:47:00 AM -19.0840 -51.2008 135° Southeast  Level FlightAware Approximate
Thu 06:48:00 AM -19.1776 -51.1026 135° Southeast  Level FlightAware Approximate
Thu 06:49:00 AM -19.2712 -51.0044 135° Southeast  Level FlightAware Approximate
Thu 06:50:00 AM -19.3647 -50.9060 135° Southeast  Level FlightAware Approximate
Thu 06:51:00 AM -19.4581 -50.8075 135° Southeast  Level FlightAware Approximate
Thu 06:52:00 AM -19.5515 -50.7090 135° Southeast  Level FlightAware Approximate
Thu 06:53:00 AM -19.6449 -50.6102 135° Southeast  Level FlightAware Approximate
Thu 06:54:00 AM -19.7382 -50.5114 135° Southeast  Level FlightAware Approximate
Thu 06:55:00 AM -19.8314 -50.4125 135° Southeast  Level FlightAware Approximate
Thu 06:56:00 AM -19.9246 -50.3134 135° Southeast  Level FlightAware Approximate
Thu 06:57:00 AM -20.0177 -50.2143 135° Southeast  Level FlightAware Approximate
Thu 06:58:00 AM -20.1108 -50.1150 135° Southeast  Level FlightAware Approximate
Thu 06:59:00 AM -20.2038 -50.0156 135° Southeast  Level FlightAware Approximate
Thu 07:00:00 AM -20.2968 -49.9161 135° Southeast  Level FlightAware Approximate
Thu 07:01:00 AM -20.3897 -49.8164 135° Southeast  Level FlightAware Approximate
Thu 07:02:00 AM -20.4825 -49.7167 135° Southeast  Level FlightAware Approximate
Thu 07:03:00 AM -20.5753 -49.6168 135° Southeast  Level FlightAware Approximate
Thu 07:04:00 AM -20.6680 -49.5168 135° Southeast  Level FlightAware Approximate
Thu 07:05:00 AM -20.7607 -49.4167 135° Southeast  Level FlightAware Approximate
Thu 07:06:00 AM -20.8533 -49.3164 135° Southeast  Level FlightAware Approximate
Thu 07:07:00 AM -20.9459 -49.2161 135° Southeast  Level FlightAware Approximate
Thu 07:08:00 AM -21.0384 -49.1156 135° Southeast  Level FlightAware Approximate
Thu 07:09:00 AM -21.1308 -49.0150 135° Southeast  Level FlightAware Approximate
Thu 07:10:00 AM -21.2232 -48.9142 135° Southeast  Level FlightAware Approximate
Thu 07:11:00 AM -21.3155 -48.8134 135° Southeast  Level FlightAware Approximate
Thu 07:12:00 AM -21.4078 -48.7123 134° Southeast  Level FlightAware Approximate
Thu 07:13:00 AM -21.5000 -48.6112 134° Southeast  Level FlightAware Approximate
Thu 07:14:00 AM -21.5921 -48.5100 134° Southeast  Level FlightAware Approximate
Thu 07:15:00 AM -21.6842 -48.4086 134° Southeast  Level FlightAware Approximate
Thu 07:16:00 AM -21.7762 -48.3071 134° Southeast  Level FlightAware Approximate
Thu 07:17:00 AM -21.8682 -48.2054 134° Southeast  Level FlightAware Approximate
Thu 07:18:00 AM -21.9615 -48.1052 137° Southeast  Level FlightAware Approximate
Thu 07:19:00 AM -22.0581 -48.0086 137° Southeast  Level FlightAware Approximate
Thu 07:20:00 AM -22.1448 -47.9022 134° Southeast  Level FlightAware Approximate
Thu 07:21:00 AM -22.2366 -47.8001 134° Southeast  Level FlightAware Approximate
Thu 07:22:00 AM -22.3269 -47.6965 133° Southeast  Level FlightAware Approximate
Thu 07:23:00 AM -22.4165 -47.5920 133° Southeast  Level FlightAware Approximate
Thu 07:24:00 AM -22.5075 -47.4889 135° Southeast  Level FlightAware Approximate
Thu 07:25:00 AM -22.6003 -47.3876 135° Southeast  Level FlightAware Approximate
Thu 07:26:00 AM -22.6919 -47.2851 133° Southeast  Level FlightAware Approximate
Thu 07:27:00 AM -22.7822 -47.1810 133° Southeast  Level FlightAware Approximate
Thu 07:28:00 AM -22.8724 -47.0768 134° Southeast  Level FlightAware Approximate
Thu 07:29:00 AM -22.9631 -46.9731 134° Southeast  Level FlightAware Approximate

Login

Don't have an account? Register now (free) for customized features, flight alerts, and more!